createdAt,value
2019-03-13T00:01:13.743Z,8.35
2019-03-13T00:03:42.484Z,8.13
2019-03-13T00:06:08.587Z,8.09
2019-03-13T00:08:34.913Z,7.85
2019-03-13T00:11:01.044Z,7.58
2019-03-13T00:13:29.962Z,7.25
2019-03-13T00:15:56.172Z,7.06
2019-03-13T00:18:25.262Z,6.92
2019-03-13T00:20:51.091Z,6.77
2019-03-13T00:23:19.953Z,6.67
2019-03-13T00:25:45.786Z,6.63
2019-03-13T00:28:11.656Z,6.24
2019-03-13T00:30:37.749Z,6.29
2019-03-13T00:33:03.595Z,5.88
2019-03-13T00:35:31.110Z,6.06
2019-03-13T00:37:57.168Z,5.95
2019-03-13T00:40:27.035Z,5.90
2019-03-13T00:42:52.867Z,5.80
2019-03-13T00:45:21.484Z,5.76
2019-03-13T00:47:47.313Z,5.71
2019-03-13T00:50:21.601Z,5.70
2019-03-13T00:52:47.491Z,5.67
2019-03-13T00:55:13.357Z,5.65
2019-03-13T00:57:39.126Z,5.66
2019-03-13T01:00:07.748Z,5.66
2019-03-13T01:02:38.310Z,5.64
2019-03-13T01:07:56.828Z,5.59
2019-03-13T01:10:22.902Z,5.49
2019-03-13T01:12:48.707Z,5.51
2019-03-13T01:15:14.634Z,5.55
2019-03-13T01:17:40.681Z,5.48
2019-03-13T01:20:08.195Z,5.48
2019-03-13T01:25:11.905Z,5.36
2019-03-13T01:27:37.733Z,5.35
2019-03-13T01:30:07.437Z,5.37
2019-03-13T01:32:38.189Z,5.37
2019-03-13T01:35:11.736Z,5.34
2019-03-13T01:37:37.533Z,5.37
2019-03-13T01:40:06.772Z,5.36
2019-03-13T01:42:32.630Z,5.37
2019-03-13T01:44:58.448Z,5.39
2019-03-13T01:47:24.502Z,5.26
2019-03-13T01:49:50.315Z,5.34
2019-03-13T01:52:16.418Z,5.31
2019-03-13T01:54:42.240Z,5.31
2019-03-13T01:57:08.308Z,5.32
2019-03-13T01:59:34.129Z,5.34
2019-03-13T02:02:00.231Z,5.37
2019-03-13T02:04:26.355Z,5.35
2019-03-13T02:06:52.180Z,5.34
2019-03-13T02:09:18.043Z,5.35
2019-03-13T02:11:43.881Z,5.42
2019-03-13T02:14:09.638Z,5.36
2019-03-13T02:16:35.765Z,5.32
2019-03-13T02:19:01.569Z,5.30
2019-03-13T02:21:27.677Z,5.28
2019-03-13T02:23:53.495Z,5.11
2019-03-13T02:26:19.328Z,5.18
2019-03-13T02:28:45.433Z,5.13
2019-03-13T02:31:11.589Z,5.12
2019-03-13T02:33:37.414Z,5.12
2019-03-13T02:36:03.255Z,5.18
2019-03-13T02:38:29.322Z,5.15
2019-03-13T02:40:55.146Z,5.17
2019-03-13T02:43:21.219Z,5.26
2019-03-13T02:45:47.059Z,5.27
2019-03-13T02:48:12.850Z,5.29
2019-03-13T02:50:38.945Z,5.29
2019-03-13T02:53:04.720Z,5.24
2019-03-13T02:55:30.536Z,5.24
2019-03-13T02:57:56.602Z,5.29
2019-03-13T03:00:24.314Z,5.25
2019-03-13T03:02:52.032Z,5.29
2019-03-13T03:05:17.997Z,5.24
2019-03-13T03:07:43.782Z,5.23
2019-03-13T03:10:11.421Z,5.23
2019-03-13T03:12:37.248Z,5.22
2019-03-13T03:15:06.365Z,5.20
2019-03-13T03:17:32.436Z,5.20
2019-03-13T03:19:58.297Z,5.19
2019-03-13T03:22:24.340Z,5.19
2019-03-13T03:24:50.435Z,5.12
2019-03-13T03:27:16.245Z,5.12
2019-03-13T03:29:42.117Z,5.09
2019-03-13T03:32:07.943Z,5.09
2019-03-13T03:34:33.771Z,5.12
2019-03-13T03:36:59.614Z,5.13
2019-03-13T03:39:25.421Z,5.13
2019-03-13T03:41:51.205Z,5.13
2019-03-13T03:44:17.143Z,5.11
2019-03-13T03:46:43.275Z,5.10
2019-03-13T03:49:09.200Z,5.08
2019-03-13T03:51:34.981Z,5.15
2019-03-13T03:54:03.957Z,5.15
2019-03-13T03:56:29.780Z,5.12
2019-03-13T03:58:58.457Z,5.14
2019-03-13T04:01:24.295Z,5.14
2019-03-13T04:03:53.303Z,5.17
2019-03-13T04:06:19.690Z,5.19
2019-03-13T04:08:45.538Z,5.18
2019-03-13T04:11:11.394Z,4.28
2019-03-13T04:13:37.474Z,5.14
2019-03-13T04:16:03.306Z,5.05
2019-03-13T04:18:29.405Z,4.96
2019-03-13T04:20:58.327Z,4.96
2019-03-13T04:23:24.152Z,4.96
2019-03-13T04:25:53.522Z,4.98
2019-03-13T04:28:19.368Z,4.99
2019-03-13T04:30:48.093Z,5.03
2019-03-13T04:33:14.163Z,5.05
2019-03-13T04:35:41.295Z,5.04
2019-03-13T04:38:07.584Z,5.05
2019-03-13T04:40:37.120Z,5.01
2019-03-13T04:43:02.924Z,5.05
2019-03-13T04:45:28.798Z,5.07
2019-03-13T04:47:54.650Z,5.08
2019-03-13T04:50:20.500Z,5.12
2019-03-13T04:52:49.123Z,5.08
2019-03-13T04:55:15.159Z,5.09
2019-03-13T04:57:43.791Z,5.07
2019-03-13T05:00:15.155Z,5.15
2019-03-13T05:02:41.127Z,5.13
2019-03-13T05:05:07.329Z,5.11
2019-03-13T05:07:33.134Z,5.08
2019-03-13T05:09:59.266Z,5.07
2019-03-13T05:12:27.828Z,5.06
2019-03-13T05:14:53.947Z,5.11
2019-03-13T05:17:22.815Z,5.07
2019-03-13T05:19:48.623Z,5.02
2019-03-13T05:22:14.780Z,5.03
2019-03-13T05:24:40.571Z,4.99
2019-03-13T05:27:06.408Z,4.96
2019-03-13T05:29:35.264Z,4.93
2019-03-13T05:32:01.416Z,4.85
2019-03-13T05:34:30.211Z,4.82
2019-03-13T05:36:56.295Z,4.81
2019-03-13T05:39:25.229Z,4.83
2019-03-13T05:41:51.055Z,4.81
2019-03-13T05:44:19.773Z,4.81
2019-03-13T05:46:45.834Z,4.80
2019-03-13T05:49:12.004Z,4.76
2019-03-13T05:51:38.103Z,4.73
2019-03-13T05:54:07.238Z,4.75
2019-03-13T05:56:33.063Z,4.66
2019-03-13T05:58:58.843Z,4.63
2019-03-13T06:01:24.956Z,4.56
2019-03-13T06:03:50.751Z,4.53
2019-03-13T06:06:19.369Z,4.52
2019-03-13T06:08:45.196Z,4.50
2019-03-13T06:11:13.752Z,4.57
2019-03-13T06:13:39.800Z,4.67
2019-03-13T06:16:07.827Z,4.68
2019-03-13T06:18:33.650Z,4.69
2019-03-13T06:21:04.547Z,4.72
2019-03-13T06:23:30.460Z,4.74
2019-03-13T06:25:59.345Z,4.68
2019-03-13T06:28:25.180Z,4.63
2019-03-13T06:30:54.315Z,4.36
2019-03-13T06:33:20.410Z,3.96
2019-03-13T06:35:46.211Z,3.74
2019-03-13T06:38:12.066Z,3.67
2019-03-13T06:40:38.114Z,3.76
2019-03-13T06:43:03.959Z,3.86
2019-03-13T06:45:29.821Z,3.89
2019-03-13T06:47:58.201Z,3.95
2019-03-13T06:50:24.443Z,4.12
2019-03-13T06:52:53.908Z,4.13
2019-03-13T06:55:20.101Z,4.11
2019-03-13T06:57:48.996Z,4.10
2019-03-13T07:00:30.467Z,4.19
2019-03-13T07:03:01.015Z,4.31
2019-03-13T07:05:28.716Z,4.39
2019-03-13T07:08:13.130Z,4.44
2019-03-13T07:10:59.110Z,4.54
2019-03-13T07:13:29.975Z,4.68
2019-03-13T07:16:14.654Z,5.02
2019-03-13T07:18:45.125Z,5.02
2019-03-13T07:21:29.858Z,4.89
2019-03-13T07:23:57.548Z,4.82
2019-03-13T07:26:42.067Z,4.83
2019-03-13T07:29:12.981Z,4.89
2019-03-13T07:31:43.501Z,5.07
2019-03-13T07:34:26.473Z,5.04
2019-03-13T07:37:11.131Z,5.06
2019-03-13T07:39:54.004Z,5.17
2019-03-13T07:42:39.676Z,5.38
2019-03-13T07:45:15.821Z,5.73
2019-03-13T07:47:49.658Z,6.35
2019-03-13T07:50:23.517Z,6.95
2019-03-13T07:52:54.304Z,6.52
2019-03-13T07:55:23.356Z,6.19
2019-03-13T07:58:08.245Z,5.92
2019-03-13T08:00:35.967Z,5.93
2019-03-13T08:03:12.744Z,5.84
2019-03-13T08:05:57.644Z,6.42
2019-03-13T08:08:34.999Z,7.61
2019-03-13T08:11:02.703Z,8.47
2019-03-13T08:13:46.902Z,7.97
2019-03-13T08:16:17.656Z,7.66
2019-03-13T08:18:45.370Z,7.29
2019-03-13T08:21:31.654Z,6.77
2019-03-13T08:24:11.236Z,6.51
2019-03-13T08:26:42.012Z,6.34
2019-03-13T08:29:10.031Z,6.12
2019-03-13T08:31:56.197Z,6.23
2019-03-13T08:34:32.745Z,7.47
2019-03-13T08:37:03.942Z,6.95
2019-03-13T08:39:48.544Z,7.44
2019-03-13T08:42:16.233Z,8.01
2019-03-13T08:44:46.892Z,8.18
2019-03-13T08:47:20.457Z,8.61
2019-03-13T08:49:50.737Z,9.10
2019-03-13T08:52:35.732Z,9.52
2019-03-13T08:55:12.290Z,9.64
2019-03-13T08:57:55.190Z,9.98
2019-03-13T09:00:39.668Z,9.77
2019-03-13T09:03:16.750Z,9.68
2019-03-13T09:05:44.720Z,10.17
2019-03-13T09:08:29.226Z,9.69
2019-03-13T09:10:59.723Z,9.59
2019-03-13T09:13:33.242Z,9.30
2019-03-13T09:16:06.785Z,9.57
2019-03-13T09:18:51.429Z,9.77
2019-03-13T09:21:19.132Z,9.20
2019-03-13T09:23:55.771Z,10.29
2019-03-13T09:26:35.830Z,8.90
2019-03-13T09:29:03.544Z,8.98
2019-03-13T09:31:31.245Z,8.92
2019-03-13T09:34:07.819Z,8.60
2019-03-13T09:36:35.546Z,7.63
2019-03-13T09:39:06.046Z,7.11
2019-03-13T09:41:39.575Z,6.74
2019-03-13T09:44:25.966Z,6.74
2019-03-13T09:46:59.954Z,7.20
2019-03-13T09:49:40.269Z,7.14
2019-03-13T09:52:07.961Z,6.95
2019-03-13T09:54:54.106Z,6.79
2019-03-13T09:57:38.829Z,6.88
2019-03-13T10:00:15.981Z,6.71
2019-03-13T10:02:47.966Z,7.16
2019-03-13T10:05:27.695Z,8.20
2019-03-13T10:08:10.522Z,9.28
2019-03-13T10:10:53.409Z,9.21
2019-03-13T10:13:21.149Z,9.49
2019-03-13T10:15:49.106Z,9.50
2019-03-13T10:18:22.988Z,9.47
2019-03-13T10:20:59.818Z,9.65
2019-03-13T10:23:36.384Z,9.65
2019-03-13T10:26:07.168Z,9.92
2019-03-13T10:28:34.871Z,9.07
2019-03-13T10:31:08.180Z,8.25
2019-03-13T10:33:38.982Z,8.50
2019-03-13T10:36:23.549Z,8.05
2019-03-13T10:38:51.260Z,8.48
2019-03-13T10:41:34.097Z,8.85
2019-03-13T10:44:04.664Z,8.98
2019-03-13T10:46:38.487Z,8.23
2019-03-13T10:49:06.200Z,8.68
2019-03-13T10:51:37.066Z,8.23
2019-03-13T10:54:07.801Z,7.61
2019-03-13T10:56:38.244Z,7.42
2019-03-13T10:59:14.953Z,7.34
2019-03-13T11:01:45.738Z,7.40
2019-03-13T11:04:15.988Z,7.30
2019-03-13T11:06:54.494Z,7.21
2019-03-13T11:09:28.714Z,7.04
2019-03-13T11:11:56.446Z,7.17
2019-03-13T11:14:24.191Z,7.11
2019-03-13T11:17:03.951Z,6.94
2019-03-13T11:19:32.002Z,6.85
2019-03-13T11:22:08.657Z,6.81
2019-03-13T11:24:36.357Z,6.78
2019-03-13T11:27:09.898Z,6.71
2019-03-13T11:29:40.399Z,6.74
2019-03-13T11:32:14.367Z,6.73
2019-03-13T11:34:48.593Z,6.77
2019-03-13T11:37:19.125Z,6.74
2019-03-13T11:39:47.086Z,6.82
2019-03-13T11:42:14.795Z,6.84
2019-03-13T11:44:59.162Z,6.86
2019-03-13T11:47:26.852Z,6.81
2019-03-13T11:49:57.375Z,6.84
2019-03-13T11:52:25.334Z,6.97
2019-03-13T11:55:04.998Z,7.06
2019-03-13T11:57:38.775Z,7.00
2019-03-13T12:00:32.253Z,7.36
2019-03-13T12:03:00.434Z,7.50
2019-03-13T12:05:28.090Z,7.62
2019-03-13T12:07:58.606Z,7.70
2019-03-13T12:13:28.843Z,8.40
2019-03-13T12:16:09.097Z,8.31
2019-03-13T12:18:39.661Z,7.84
2019-03-13T12:21:16.391Z,7.49
2019-03-13T12:24:01.314Z,7.37
2019-03-13T12:26:43.967Z,7.33
2019-03-13T12:29:26.571Z,7.29
2019-03-13T12:31:57.326Z,7.33
2019-03-13T12:34:42.546Z,7.31
2019-03-13T12:37:10.716Z,7.35
2019-03-13T12:39:55.422Z,7.90
2019-03-13T12:42:29.373Z,8.18
2019-03-13T12:45:08.916Z,8.64
2019-03-13T12:47:48.988Z,8.98
2019-03-13T12:50:17.081Z,8.49
2019-03-13T12:53:03.328Z,8.02
2019-03-13T12:58:42.786Z,8.14
2019-03-13T13:01:10.771Z,8.28
2019-03-13T13:03:38.495Z,8.98
2019-03-13T13:06:22.839Z,9.09
2019-03-13T13:09:05.969Z,9.19
2019-03-13T13:11:49.143Z,9.18
2019-03-13T13:14:34.164Z,9.18
2019-03-13T13:17:01.864Z,8.55
2019-03-13T13:19:27.948Z,8.32
2019-03-13T13:21:53.771Z,8.09
2019-03-13T13:24:19.856Z,8.41
2019-03-13T13:26:45.687Z,8.52
2019-03-13T13:29:11.498Z,8.38
2019-03-13T13:31:37.337Z,8.45
2019-03-13T13:34:03.125Z,8.61
2019-03-13T13:36:28.961Z,8.55
2019-03-13T13:38:54.769Z,8.99
2019-03-13T13:41:20.599Z,9.20
2019-03-13T13:43:46.721Z,9.13
2019-03-13T13:46:16.166Z,8.53
2019-03-13T13:48:41.987Z,8.14
2019-03-13T13:51:07.802Z,8.06
2019-03-13T13:53:33.598Z,8.24
2019-03-13T13:55:59.451Z,8.26
2019-03-13T13:58:28.358Z,8.02
2019-03-13T14:00:53.526Z,7.80
2019-03-13T14:03:19.580Z,7.80
2019-03-13T14:05:45.391Z,7.75
2019-03-13T14:08:11.213Z,7.86
2019-03-13T14:10:37.429Z,7.75
2019-03-13T14:13:03.397Z,7.72
2019-03-13T14:15:29.198Z,7.89
2019-03-13T14:17:55.046Z,8.47
2019-03-13T14:20:20.957Z,8.39
2019-03-13T14:22:47.193Z,8.31
2019-03-13T14:25:13.332Z,8.28
2019-03-13T14:27:39.137Z,8.26
2019-03-13T14:30:19.517Z,8.39
2019-03-13T14:32:45.334Z,8.39
2019-03-13T14:35:11.504Z,8.56
2019-03-13T14:37:37.313Z,9.12
2019-03-13T14:40:11.277Z,9.31
2019-03-13T14:42:37.071Z,9.35
2019-03-13T14:45:06.518Z,8.85
2019-03-13T14:47:32.297Z,8.68
2019-03-13T14:49:58.117Z,8.63
2019-03-13T14:52:24.212Z,8.74
2019-03-13T14:54:50.034Z,8.35
2019-03-13T14:57:15.857Z,8.21
2019-03-13T14:59:41.650Z,8.09
2019-03-13T15:02:07.495Z,8.12
2019-03-13T15:04:33.335Z,8.09
2019-03-13T15:06:59.424Z,8.13
2019-03-13T15:09:25.235Z,8.37
2019-03-13T15:11:51.274Z,8.62
2019-03-13T15:14:17.341Z,8.47
2019-03-13T15:16:43.162Z,8.18
2019-03-13T15:19:09.006Z,7.89
2019-03-13T15:21:34.813Z,7.68
2019-03-13T15:24:00.891Z,7.55
2019-03-13T15:26:26.680Z,7.45
2019-03-13T15:28:52.519Z,7.40
2019-03-13T15:31:18.332Z,7.39
2019-03-13T15:33:44.148Z,7.32
2019-03-13T15:36:09.981Z,7.21
2019-03-13T15:38:35.776Z,7.10
2019-03-13T15:41:01.614Z,7.09
2019-03-13T15:43:27.435Z,7.22
2019-03-13T15:45:53.305Z,7.30
2019-03-13T15:48:19.398Z,7.36
2019-03-13T15:50:45.507Z,7.37
2019-03-13T15:53:12.936Z,7.37
2019-03-13T15:55:38.767Z,7.35
2019-03-13T15:58:07.931Z,7.29
2019-03-13T16:00:33.736Z,7.24
2019-03-13T16:03:02.539Z,7.16
2019-03-13T16:05:28.355Z,7.09
2019-03-13T16:07:54.196Z,7.00
2019-03-13T16:10:20.488Z,7.03
2019-03-13T16:12:46.306Z,6.99
2019-03-13T16:15:25.393Z,7.00
2019-03-13T16:17:51.486Z,7.04
2019-03-13T16:20:17.479Z,7.07
2019-03-13T16:22:45.288Z,7.03
2019-03-13T16:25:11.723Z,7.03
2019-03-13T16:27:37.771Z,7.08
2019-03-13T16:30:27.287Z,7.15
2019-03-13T16:32:53.102Z,7.14
2019-03-13T16:35:18.934Z,7.11
2019-03-13T16:37:44.718Z,7.07
2019-03-13T16:40:13.036Z,7.14
2019-03-13T16:42:39.158Z,7.11
2019-03-13T16:45:07.886Z,7.10
2019-03-13T16:47:33.705Z,7.10
2019-03-13T16:49:59.499Z,7.08
2019-03-13T16:52:25.574Z,7.10
2019-03-13T16:54:51.687Z,7.11
2019-03-13T16:57:17.810Z,7.08
2019-03-13T16:59:43.675Z,7.06
2019-03-13T17:02:09.484Z,7.06
2019-03-13T17:04:35.282Z,7.08
2019-03-13T17:07:01.378Z,7.08
2019-03-13T17:09:27.183Z,7.08
2019-03-13T17:11:52.997Z,7.10
2019-03-13T17:14:18.789Z,7.08
2019-03-13T17:16:44.620Z,7.09
2019-03-13T17:19:10.415Z,7.06
2019-03-13T17:21:36.223Z,7.06
2019-03-13T17:24:02.010Z,7.02
2019-03-13T17:26:27.817Z,7.01
2019-03-13T17:28:53.902Z,6.99
2019-03-13T17:31:19.829Z,6.93
2019-03-13T17:33:45.673Z,6.82
2019-03-13T17:36:11.475Z,6.64
2019-03-13T17:38:37.572Z,6.56
2019-03-13T17:41:03.518Z,6.46
2019-03-13T17:43:39.038Z,6.42
2019-03-13T17:45:57.331Z,6.41
2019-03-13T17:48:23.994Z,6.41
2019-03-13T17:50:49.793Z,6.39
2019-03-13T17:53:18.639Z,6.39
2019-03-13T17:55:44.434Z,6.42
2019-03-13T17:58:10.511Z,6.40
2019-03-13T18:00:52.411Z,6.42
2019-03-13T18:03:19.226Z,6.40
2019-03-13T18:05:45.058Z,6.44
2019-03-13T18:08:11.136Z,6.49
2019-03-13T18:10:36.943Z,6.54
2019-03-13T18:13:02.946Z,6.59
2019-03-13T18:15:28.735Z,6.61
2019-03-13T18:17:54.547Z,6.60
2019-03-13T18:20:21.988Z,6.65
2019-03-13T18:22:48.167Z,6.70
2019-03-13T18:25:14.567Z,6.70
2019-03-13T18:27:40.487Z,6.61
2019-03-13T18:30:12.966Z,6.43
2019-03-13T18:32:42.093Z,6.44
2019-03-13T18:35:08.912Z,6.12
2019-03-13T18:37:34.704Z,5.78
2019-03-13T18:40:00.560Z,5.42
2019-03-13T18:42:26.352Z,5.04
2019-03-13T18:44:52.140Z,4.80
2019-03-13T18:47:17.967Z,4.69
2019-03-13T18:49:43.907Z,4.66
2019-03-13T18:52:09.710Z,4.61
2019-03-13T18:54:35.792Z,4.29
2019-03-13T18:57:01.591Z,4.52
2019-03-13T18:59:27.389Z,4.46
2019-03-13T19:01:56.250Z,4.44
2019-03-13T19:04:22.351Z,4.45
2019-03-13T19:06:51.066Z,4.45
2019-03-13T19:09:16.994Z,4.42
2019-03-13T19:11:43.215Z,4.41
2019-03-13T19:14:08.999Z,4.41
2019-03-13T19:16:34.833Z,4.37
2019-03-13T19:19:00.726Z,4.38
2019-03-13T19:21:26.808Z,3.38
2019-03-13T19:26:40.485Z,4.37
2019-03-13T19:29:06.630Z,4.35
2019-03-13T19:31:32.424Z,4.32
2019-03-13T19:33:58.227Z,4.36
2019-03-13T19:36:24.048Z,4.35
2019-03-13T19:38:50.151Z,4.40
2019-03-13T19:41:15.972Z,4.43
2019-03-13T19:43:41.797Z,4.45
2019-03-13T19:46:07.848Z,4.48
2019-03-13T19:48:33.718Z,4.47
2019-03-13T19:50:59.530Z,4.51
2019-03-13T19:53:25.726Z,4.48
2019-03-13T19:55:51.828Z,4.45
2019-03-13T19:58:17.651Z,4.56
2019-03-13T20:00:43.487Z,4.58
2019-03-13T20:03:11.879Z,4.57
2019-03-13T20:05:45.371Z,4.60
2019-03-13T20:08:05.836Z,4.60
2019-03-13T20:10:31.683Z,4.77
2019-03-13T20:12:57.501Z,4.77
2019-03-13T20:15:27.967Z,4.78
2019-03-13T20:17:53.867Z,4.78
2019-03-13T20:20:20.974Z,4.85
2019-03-13T20:22:48.615Z,4.80
2019-03-13T20:25:17.656Z,4.89
2019-03-13T20:27:42.864Z,4.90
2019-03-13T20:30:12.203Z,4.97
2019-03-13T20:32:38.030Z,5.05
2019-03-13T20:35:04.210Z,5.06
2019-03-13T20:37:30.022Z,5.16
2019-03-13T20:39:55.865Z,5.27
2019-03-13T20:42:22.053Z,5.31
2019-03-13T20:44:47.906Z,5.33
2019-03-13T20:47:16.842Z,5.31
2019-03-13T20:49:42.662Z,5.41
2019-03-13T20:52:11.244Z,5.41
2019-03-13T20:54:37.111Z,5.42
2019-03-13T20:57:05.371Z,5.41
2019-03-13T20:59:32.605Z,5.39
2019-03-13T21:02:00.234Z,5.37
2019-03-13T21:04:26.397Z,5.37
2019-03-13T21:06:52.336Z,5.35
2019-03-13T21:09:18.241Z,5.32
2019-03-13T21:11:44.056Z,5.32
2019-03-13T21:14:12.657Z,5.31
2019-03-13T21:16:38.480Z,5.28
2019-03-13T21:19:07.137Z,5.25
2019-03-13T21:21:32.938Z,5.21
2019-03-13T21:24:01.508Z,5.18
2019-03-13T21:26:27.404Z,5.10
2019-03-13T21:28:58.121Z,5.00
2019-03-13T21:31:23.939Z,4.91
2019-03-13T21:33:52.805Z,4.89
2019-03-13T21:36:18.715Z,4.87
2019-03-13T21:38:44.548Z,4.85
2019-03-13T21:41:10.638Z,4.85
2019-03-13T21:43:36.740Z,4.82
2019-03-13T21:46:02.514Z,4.78
2019-03-13T21:48:28.616Z,4.71
2019-03-13T21:50:57.486Z,4.69
2019-03-13T21:53:23.295Z,4.65
2019-03-13T21:55:53.957Z,4.59
2019-03-13T21:58:19.708Z,4.55
2019-03-13T22:00:47.288Z,4.48
2019-03-13T22:03:13.058Z,4.46
2019-03-13T22:05:41.951Z,4.53
2019-03-13T22:08:07.878Z,4.56
2019-03-13T22:10:37.106Z,4.62
2019-03-13T22:13:02.955Z,4.63
2019-03-13T22:15:28.759Z,4.65
2019-03-13T22:17:54.888Z,4.65
2019-03-13T22:20:20.779Z,4.69
2019-03-13T22:22:48.130Z,4.71
2019-03-13T22:25:15.538Z,4.79
2019-03-13T22:27:42.608Z,4.74
2019-03-13T22:30:17.134Z,4.77
2019-03-13T22:32:43.314Z,4.75
2019-03-13T22:35:09.107Z,4.65
2019-03-13T22:37:35.231Z,4.69
2019-03-13T22:40:01.338Z,4.67
2019-03-13T22:42:27.174Z,4.68
2019-03-13T22:44:53.009Z,4.73
2019-03-13T22:47:23.597Z,4.72
2019-03-13T22:49:49.669Z,4.71
2019-03-13T22:52:15.762Z,4.70
2019-03-13T22:54:41.600Z,4.72
2019-03-13T22:57:07.416Z,4.75
2019-03-13T22:59:36.595Z,4.74
2019-03-13T23:02:03.330Z,4.77
2019-03-13T23:04:29.146Z,4.81
2019-03-13T23:06:55.208Z,4.83
2019-03-13T23:09:24.295Z,4.83
2019-03-13T23:11:50.326Z,4.79
2019-03-13T23:14:19.418Z,4.79
2019-03-13T23:16:45.238Z,4.79
2019-03-13T23:19:12.467Z,4.80
2019-03-13T23:21:38.328Z,4.84
2019-03-13T23:24:07.027Z,4.89
2019-03-13T23:26:33.080Z,4.93
2019-03-13T23:28:58.911Z,4.93
2019-03-13T23:31:24.709Z,4.96
2019-03-13T23:33:50.534Z,4.99
2019-03-13T23:36:19.755Z,4.96
2019-03-13T23:38:45.579Z,4.96
2019-03-13T23:41:14.489Z,4.95
2019-03-13T23:43:40.339Z,4.97
2019-03-13T23:46:08.253Z,4.99
2019-03-13T23:48:34.198Z,4.97
2019-03-13T23:51:21.868Z,4.92
2019-03-13T23:53:47.984Z,4.94
2019-03-13T23:56:14.153Z,4.90
2019-03-13T23:58:39.973Z,4.89
